createdAt,value
2018-05-11T00:02:00.000Z,98739
2018-05-11T00:07:00.000Z,98757
2018-05-11T00:12:00.000Z,98759
2018-05-11T00:17:00.000Z,98756
2018-05-11T00:22:00.000Z,98761
2018-05-11T00:27:00.000Z,98756
2018-05-11T00:32:00.000Z,98754
2018-05-11T00:37:00.000Z,98755
2018-05-11T00:42:00.000Z,98748
2018-05-11T00:47:00.000Z,98740
2018-05-11T00:52:00.000Z,98735
2018-05-11T00:57:00.000Z,98746
2018-05-11T01:02:00.000Z,98751
2018-05-11T01:07:00.000Z,98753
2018-05-11T01:12:00.000Z,98744
2018-05-11T01:17:00.000Z,98745
2018-05-11T01:23:00.000Z,98742
2018-05-11T01:28:00.000Z,98746
2018-05-11T01:33:00.000Z,98739
2018-05-11T01:38:00.000Z,98739
2018-05-11T01:43:00.000Z,98746
2018-05-11T01:48:00.000Z,98743
2018-05-11T01:53:00.000Z,98741
2018-05-11T01:58:00.000Z,98735
2018-05-11T02:03:00.000Z,98725
2018-05-11T02:08:00.000Z,98716
2018-05-11T02:13:00.000Z,98717
2018-05-11T02:18:00.000Z,98709
2018-05-11T02:23:00.000Z,98703
2018-05-11T02:28:00.000Z,98709
2018-05-11T02:33:00.000Z,98712
2018-05-11T02:38:00.000Z,98709
2018-05-11T02:43:00.000Z,98709
2018-05-11T02:48:00.000Z,98724
2018-05-11T02:53:00.000Z,98716
2018-05-11T02:58:00.000Z,98734
2018-05-11T03:03:00.000Z,98737
2018-05-11T03:08:00.000Z,98742
2018-05-11T03:13:00.000Z,98736
2018-05-11T03:18:00.000Z,98744
2018-05-11T03:23:00.000Z,98755
2018-05-11T03:28:00.000Z,98769
2018-05-11T03:33:00.000Z,98771
2018-05-11T03:38:00.000Z,98769
2018-05-11T03:43:00.000Z,98770
2018-05-11T03:48:00.000Z,98788
2018-05-11T03:53:00.000Z,98796
2018-05-11T03:58:00.000Z,98792
2018-05-11T04:03:00.000Z,98796
2018-05-11T04:08:00.000Z,98798
2018-05-11T04:13:00.000Z,98796
2018-05-11T04:18:00.000Z,98810
2018-05-11T04:23:00.000Z,98821
2018-05-11T04:28:00.000Z,98825
2018-05-11T04:33:00.000Z,98840
2018-05-11T04:38:00.000Z,98835
2018-05-11T04:43:00.000Z,98849
2018-05-11T04:48:00.000Z,98878
2018-05-11T04:53:00.000Z,98884
2018-05-11T04:58:00.000Z,98900
2018-05-11T05:03:00.000Z,98900
2018-05-11T05:08:00.000Z,98909
2018-05-11T05:13:00.000Z,98919
2018-05-11T05:18:00.000Z,98920
2018-05-11T05:23:00.000Z,98912
2018-05-11T05:28:00.000Z,98927
2018-05-11T05:33:00.000Z,98934
2018-05-11T05:38:00.000Z,98951
2018-05-11T05:43:00.000Z,98953
2018-05-11T05:48:00.000Z,98962
2018-05-11T05:53:00.000Z,98970
2018-05-11T05:58:00.000Z,98963
2018-05-11T06:03:00.000Z,98978
2018-05-11T06:08:00.000Z,98977
2018-05-11T06:13:00.000Z,98975
2018-05-11T06:18:00.000Z,98981
2018-05-11T06:23:00.000Z,98980
2018-05-11T06:28:00.000Z,98971
2018-05-11T06:33:00.000Z,98970
2018-05-11T06:38:00.000Z,98968
2018-05-11T06:43:00.000Z,98984
2018-05-11T06:48:00.000Z,98983
2018-05-11T06:53:00.000Z,98989
2018-05-11T06:58:00.000Z,98997
2018-05-11T07:03:00.000Z,98983
2018-05-11T07:08:00.000Z,98992
2018-05-11T07:13:00.000Z,98992
2018-05-11T07:18:00.000Z,98996
2018-05-11T07:23:00.000Z,98999
2018-05-11T07:28:00.000Z,99009
2018-05-11T07:33:00.000Z,99003
2018-05-11T07:39:00.000Z,98998
2018-05-11T07:44:00.000Z,99001
2018-05-11T07:49:00.000Z,99008
2018-05-11T07:54:00.000Z,99016
2018-05-11T07:59:00.000Z,99022
2018-05-11T08:04:00.000Z,99023
2018-05-11T08:09:00.000Z,99016
2018-05-11T08:14:00.000Z,99025
2018-05-11T08:19:00.000Z,99029
2018-05-11T08:24:00.000Z,99021
2018-05-11T08:29:00.000Z,99026
2018-05-11T08:34:00.000Z,99045
2018-05-11T08:39:00.000Z,99041
2018-05-11T08:44:00.000Z,99045
2018-05-11T08:49:00.000Z,99046
2018-05-11T08:54:00.000Z,99044
2018-05-11T08:59:00.000Z,99026
2018-05-11T09:04:00.000Z,99032
2018-05-11T09:09:00.000Z,99031
2018-05-11T09:14:00.000Z,99031
2018-05-11T09:19:00.000Z,99019
2018-05-11T09:24:00.000Z,99017
2018-05-11T09:29:00.000Z,99027
2018-05-11T09:34:00.000Z,99029
2018-05-11T09:39:00.000Z,99020
2018-05-11T09:44:00.000Z,99022
2018-05-11T09:49:00.000Z,99024
2018-05-11T09:54:00.000Z,99022
2018-05-11T09:59:00.000Z,99023
2018-05-11T10:04:00.000Z,99026
2018-05-11T10:09:00.000Z,99020
2018-05-11T10:14:00.000Z,99016
2018-05-11T10:19:00.000Z,99020
2018-05-11T10:24:00.000Z,99012
2018-05-11T10:29:00.000Z,99017
2018-05-11T10:34:00.000Z,99021
2018-05-11T10:39:00.000Z,99014
2018-05-11T10:44:00.000Z,99019
2018-05-11T10:49:00.000Z,99012
2018-05-11T10:54:00.000Z,99010
2018-05-11T10:59:00.000Z,99010
2018-05-11T11:04:00.000Z,99004
2018-05-11T11:09:00.000Z,98998
2018-05-11T11:14:00.000Z,98995
2018-05-11T11:19:00.000Z,98999
2018-05-11T11:24:00.000Z,98993
2018-05-11T11:29:00.000Z,98998
2018-05-11T11:34:00.000Z,98981
2018-05-11T11:39:00.000Z,98984
2018-05-11T11:44:00.000Z,98968
2018-05-11T11:49:00.000Z,98970
2018-05-11T11:54:00.000Z,98967
2018-05-11T11:59:00.000Z,98962
2018-05-11T12:04:00.000Z,98960
2018-05-11T12:09:00.000Z,98961
2018-05-11T12:14:00.000Z,98954
2018-05-11T12:19:00.000Z,98947
2018-05-11T12:24:00.000Z,98938
2018-05-11T12:29:00.000Z,98933
2018-05-11T12:34:00.000Z,98927
2018-05-11T12:39:00.000Z,98927
2018-05-11T12:44:00.000Z,98916
2018-05-11T12:49:00.000Z,98915
2018-05-11T12:54:00.000Z,98907
2018-05-11T12:59:00.000Z,98895
2018-05-11T13:04:00.000Z,98900
2018-05-11T13:09:00.000Z,98899
2018-05-11T13:14:00.000Z,98896
2018-05-11T13:19:00.000Z,98884
2018-05-11T13:24:00.000Z,98873
2018-05-11T13:29:00.000Z,98867
2018-05-11T13:34:00.000Z,98863
2018-05-11T13:39:00.000Z,98855
2018-05-11T13:44:00.000Z,98854
2018-05-11T13:50:00.000Z,98850
2018-05-11T13:55:00.000Z,98834
2018-05-11T14:00:00.000Z,98830
2018-05-11T14:05:00.000Z,98827
2018-05-11T14:10:00.000Z,98824
2018-05-11T14:15:00.000Z,98824
2018-05-11T14:20:00.000Z,98818
2018-05-11T14:25:00.000Z,98817
2018-05-11T14:30:00.000Z,98819
2018-05-11T14:35:00.000Z,98813
2018-05-11T14:40:00.000Z,98821
2018-05-11T14:45:00.000Z,98822
2018-05-11T14:50:00.000Z,98816
2018-05-11T14:55:00.000Z,98816
2018-05-11T15:00:00.000Z,98798
2018-05-11T15:05:00.000Z,98802
2018-05-11T15:10:00.000Z,98798
2018-05-11T15:15:00.000Z,98799
2018-05-11T15:20:00.000Z,98796
2018-05-11T15:25:00.000Z,98793
2018-05-11T15:30:00.000Z,98799
2018-05-11T15:35:00.000Z,98800
2018-05-11T15:40:00.000Z,98796
2018-05-11T15:45:00.000Z,98793
2018-05-11T15:50:00.000Z,98791
2018-05-11T15:55:00.000Z,98787
2018-05-11T16:00:00.000Z,98791
2018-05-11T16:05:00.000Z,98784
2018-05-11T16:10:00.000Z,98786
2018-05-11T16:15:00.000Z,98784
2018-05-11T16:20:00.000Z,98778
2018-05-11T16:25:00.000Z,98784
2018-05-11T16:30:00.000Z,98782
2018-05-11T16:35:00.000Z,98787
2018-05-11T16:40:00.000Z,98787
2018-05-11T16:45:00.000Z,98792
2018-05-11T16:50:00.000Z,98797
2018-05-11T16:55:00.000Z,98789
2018-05-11T17:00:00.000Z,98799
2018-05-11T17:05:00.000Z,98801
2018-05-11T17:10:00.000Z,98789
2018-05-11T17:15:00.000Z,98785
2018-05-11T17:20:00.000Z,98784
2018-05-11T17:25:00.000Z,98796
2018-05-11T17:30:00.000Z,98798
2018-05-11T17:35:00.000Z,98790
2018-05-11T17:40:00.000Z,98782
2018-05-11T17:45:00.000Z,98780
2018-05-11T17:50:00.000Z,98778
2018-05-11T17:55:00.000Z,98784
2018-05-11T18:00:00.000Z,98775
2018-05-11T18:05:00.000Z,98770
2018-05-11T18:10:00.000Z,98774
2018-05-11T18:15:00.000Z,98784
2018-05-11T18:20:00.000Z,98777
2018-05-11T18:25:00.000Z,98773
2018-05-11T18:30:00.000Z,98774
2018-05-11T18:35:00.000Z,98780
2018-05-11T18:40:00.000Z,98781
2018-05-11T18:45:00.000Z,98786
2018-05-11T18:50:00.000Z,98798
2018-05-11T18:55:00.000Z,98795
2018-05-11T19:00:00.000Z,98799
2018-05-11T19:05:00.000Z,98797
2018-05-11T19:10:00.000Z,98808
2018-05-11T19:15:00.000Z,98802
2018-05-11T19:20:00.000Z,98805
2018-05-11T19:25:00.000Z,98812
2018-05-11T19:30:00.000Z,98807
2018-05-11T19:35:00.000Z,98810
2018-05-11T19:40:00.000Z,98814
2018-05-11T19:45:00.000Z,98807
2018-05-11T19:50:00.000Z,98806
2018-05-11T19:55:00.000Z,98807
2018-05-11T20:01:00.000Z,98808
2018-05-11T20:06:00.000Z,98810
2018-05-11T20:11:00.000Z,98810
2018-05-11T20:16:00.000Z,98811
2018-05-11T20:21:00.000Z,98818
2018-05-11T20:26:00.000Z,98826
2018-05-11T20:31:00.000Z,98821
2018-05-11T20:36:00.000Z,98831
2018-05-11T20:41:00.000Z,98831
2018-05-11T20:46:00.000Z,98840
2018-05-11T20:51:00.000Z,98847
2018-05-11T20:56:00.000Z,98846
2018-05-11T21:01:00.000Z,98836
2018-05-11T21:06:00.000Z,98838
2018-05-11T21:11:00.000Z,98834
2018-05-11T21:16:00.000Z,98845
2018-05-11T21:21:00.000Z,98831
2018-05-11T21:26:00.000Z,98832
2018-05-11T21:31:00.000Z,98822
2018-05-11T21:36:00.000Z,98835
2018-05-11T21:41:00.000Z,98837
2018-05-11T21:46:00.000Z,98836
2018-05-11T21:51:00.000Z,98821
2018-05-11T21:56:00.000Z,98832
2018-05-11T22:01:00.000Z,98822
2018-05-11T22:06:00.000Z,98826
2018-05-11T22:11:00.000Z,98818
2018-05-11T22:16:00.000Z,98826
2018-05-11T22:21:00.000Z,98825
2018-05-11T22:26:00.000Z,98825
2018-05-11T22:31:00.000Z,98827
2018-05-11T22:36:00.000Z,98828
2018-05-11T22:41:00.000Z,98819
2018-05-11T22:46:00.000Z,98816
2018-05-11T22:51:00.000Z,98822
2018-05-11T22:56:00.000Z,98817
2018-05-11T23:01:00.000Z,98805
2018-05-11T23:06:00.000Z,98801
2018-05-11T23:11:00.000Z,98801
2018-05-11T23:16:00.000Z,98798
2018-05-11T23:21:00.000Z,98793
2018-05-11T23:26:00.000Z,98799
2018-05-11T23:31:00.000Z,98793
2018-05-11T23:36:00.000Z,98790
2018-05-11T23:41:00.000Z,98784
2018-05-11T23:46:00.000Z,98786
2018-05-11T23:51:00.000Z,98785
2018-05-11T23:56:00.000Z,98780
